sensor_id;sensor_type;location;lat;lon;timestamp;P1;durP1;ratioP1;P2;durP2;ratioP2
51718;SDS011;37795;53.236;5.704;2022-11-14T00:02:08;33.88;;;29.35;;
51718;SDS011;37795;53.236;5.704;2022-11-14T00:04:34;34.55;;;28.05;;
51718;SDS011;37795;53.236;5.704;2022-11-14T00:07:00;34.23;;;27.17;;
51718;SDS011;37795;53.236;5.704;2022-11-14T00:09:26;31.60;;;25.10;;
51718;SDS011;37795;53.236;5.704;2022-11-14T00:11:52;31.13;;;25.92;;
51718;SDS011;37795;53.236;5.704;2022-11-14T00:14:19;31.85;;;24.88;;
51718;SDS011;37795;53.236;5.704;2022-11-14T00:16:45;31.95;;;23.73;;
51718;SDS011;37795;53.236;5.704;2022-11-14T00:19:11;34.35;;;24.80;;
51718;SDS011;37795;53.236;5.704;2022-11-14T00:21:38;37.33;;;27.88;;
51718;SDS011;37795;53.236;5.704;2022-11-14T00:24:03;35.47;;;26.88;;
51718;SDS011;37795;53.236;5.704;2022-11-14T00:26:29;35.50;;;26.57;;
51718;SDS011;37795;53.236;5.704;2022-11-14T00:28:55;37.72;;;26.90;;
51718;SDS011;37795;53.236;5.704;2022-11-14T00:31:21;36.00;;;26.17;;
51718;SDS011;37795;53.236;5.704;2022-11-14T00:33:47;34.05;;;25.00;;
51718;SDS011;37795;53.236;5.704;2022-11-14T00:36:13;36.03;;;24.87;;
51718;SDS011;37795;53.236;5.704;2022-11-14T00:38:38;33.97;;;25.33;;
51718;SDS011;37795;53.236;5.704;2022-11-14T00:41:04;39.17;;;26.80;;
51718;SDS011;37795;53.236;5.704;2022-11-14T00:43:30;33.92;;;25.38;;
51718;SDS011;37795;53.236;5.704;2022-11-14T00:45:56;37.37;;;26.67;;
51718;SDS011;37795;53.236;5.704;2022-11-14T00:48:21;37.77;;;27.43;;
51718;SDS011;37795;53.236;5.704;2022-11-14T00:50:47;36.83;;;25.92;;
51718;SDS011;37795;53.236;5.704;2022-11-14T00:53:13;38.37;;;27.27;;
51718;SDS011;37795;53.236;5.704;2022-11-14T00:55:39;36.20;;;25.67;;
51718;SDS011;37795;53.236;5.704;2022-11-14T00:58:06;34.35;;;27.15;;
51718;SDS011;37795;53.236;5.704;2022-11-14T01:00:32;33.25;;;25.75;;
51718;SDS011;37795;53.236;5.704;2022-11-14T01:02:58;35.47;;;26.37;;
51718;SDS011;37795;53.236;5.704;2022-11-14T01:05:24;34.35;;;26.30;;
51718;SDS011;37795;53.236;5.704;2022-11-14T01:07:50;33.10;;;23.73;;
51718;SDS011;37795;53.236;5.704;2022-11-14T01:10:16;33.50;;;25.88;;
51718;SDS011;37795;53.236;5.704;2022-11-14T01:12:41;36.42;;;25.27;;
51718;SDS011;37795;53.236;5.704;2022-11-14T01:15:07;38.58;;;25.83;;
51718;SDS011;37795;53.236;5.704;2022-11-14T01:17:33;33.63;;;24.90;;
51718;SDS011;37795;53.236;5.704;2022-11-14T01:19:59;36.22;;;25.38;;
51718;SDS011;37795;53.236;5.704;2022-11-14T01:22:25;29.83;;;23.73;;
51718;SDS011;37795;53.236;5.704;2022-11-14T01:24:51;36.28;;;25.00;;
51718;SDS011;37795;53.236;5.704;2022-11-14T01:27:16;33.13;;;24.67;;
51718;SDS011;37795;53.236;5.704;2022-11-14T01:29:42;34.42;;;23.75;;
51718;SDS011;37795;53.236;5.704;2022-11-14T01:32:08;31.33;;;23.38;;
51718;SDS011;37795;53.236;5.704;2022-11-14T01:34:34;34.10;;;25.35;;
51718;SDS011;37795;53.236;5.704;2022-11-14T01:37:00;37.77;;;25.10;;
51718;SDS011;37795;53.236;5.704;2022-11-14T01:39:25;33.22;;;25.23;;
51718;SDS011;37795;53.236;5.704;2022-11-14T01:41:51;33.42;;;25.35;;
51718;SDS011;37795;53.236;5.704;2022-11-14T01:47:05;32.33;;;25.07;;
51718;SDS011;37795;53.236;5.704;2022-11-14T01:49:41;32.90;;;24.15;;
51718;SDS011;37795;53.236;5.704;2022-11-14T01:52:12;31.83;;;25.55;;
51718;SDS011;37795;53.236;5.704;2022-11-14T01:54:43;33.15;;;26.15;;
51718;SDS011;37795;53.236;5.704;2022-11-14T01:57:11;33.27;;;25.73;;
51718;SDS011;37795;53.236;5.704;2022-11-14T01:59:40;32.03;;;22.90;;
51718;SDS011;37795;53.236;5.704;2022-11-14T02:02:15;36.78;;;26.08;;
51718;SDS011;37795;53.236;5.704;2022-11-14T02:04:47;31.20;;;24.20;;
51718;SDS011;37795;53.236;5.704;2022-11-14T02:07:19;37.13;;;25.30;;
51718;SDS011;37795;53.236;5.704;2022-11-14T02:09:47;31.00;;;24.48;;
51718;SDS011;37795;53.236;5.704;2022-11-14T02:12:14;33.38;;;25.33;;
51718;SDS011;37795;53.236;5.704;2022-11-14T02:14:43;33.25;;;25.17;;
51718;SDS011;37795;53.236;5.704;2022-11-14T02:17:10;28.52;;;23.13;;
51718;SDS011;37795;53.236;5.704;2022-11-14T02:19:48;31.25;;;24.70;;
51718;SDS011;37795;53.236;5.704;2022-11-14T02:22:14;31.23;;;25.13;;
51718;SDS011;37795;53.236;5.704;2022-11-14T02:24:40;31.80;;;25.13;;
51718;SDS011;37795;53.236;5.704;2022-11-14T02:27:06;33.63;;;25.15;;
51718;SDS011;37795;53.236;5.704;2022-11-14T02:29:34;30.33;;;24.35;;
51718;SDS011;37795;53.236;5.704;2022-11-14T02:32:00;28.40;;;24.20;;
51718;SDS011;37795;53.236;5.704;2022-11-14T02:34:26;32.75;;;25.80;;
51718;SDS011;37795;53.236;5.704;2022-11-14T02:36:52;30.90;;;25.58;;
51718;SDS011;37795;53.236;5.704;2022-11-14T02:39:18;35.03;;;26.00;;
51718;SDS011;37795;53.236;5.704;2022-11-14T02:41:44;31.67;;;24.73;;
51718;SDS011;37795;53.236;5.704;2022-11-14T02:44:10;30.88;;;25.13;;
51718;SDS011;37795;53.236;5.704;2022-11-14T02:46:35;36.47;;;25.50;;
51718;SDS011;37795;53.236;5.704;2022-11-14T02:49:01;29.55;;;26.27;;
51718;SDS011;37795;53.236;5.704;2022-11-14T02:51:27;34.05;;;26.80;;
51718;SDS011;37795;53.236;5.704;2022-11-14T02:53:53;30.15;;;25.45;;
51718;SDS011;37795;53.236;5.704;2022-11-14T02:56:19;38.22;;;26.38;;
51718;SDS011;37795;53.236;5.704;2022-11-14T02:58:44;29.60;;;24.83;;
51718;SDS011;37795;53.236;5.704;2022-11-14T03:01:10;34.13;;;26.05;;
51718;SDS011;37795;53.236;5.704;2022-11-14T03:03:36;33.65;;;25.75;;
51718;SDS011;37795;53.236;5.704;2022-11-14T03:06:02;35.13;;;26.60;;
51718;SDS011;37795;53.236;5.704;2022-11-14T03:08:28;32.10;;;26.38;;
51718;SDS011;37795;53.236;5.704;2022-11-14T03:10:54;34.92;;;28.38;;
51718;SDS011;37795;53.236;5.704;2022-11-14T03:13:20;35.47;;;28.92;;
51718;SDS011;37795;53.236;5.704;2022-11-14T03:15:46;38.75;;;29.00;;
51718;SDS011;37795;53.236;5.704;2022-11-14T03:18:12;36.20;;;29.83;;
51718;SDS011;37795;53.236;5.704;2022-11-14T03:20:38;38.60;;;31.17;;
51718;SDS011;37795;53.236;5.704;2022-11-14T03:23:04;39.97;;;30.63;;
51718;SDS011;37795;53.236;5.704;2022-11-14T03:25:29;35.17;;;28.58;;
51718;SDS011;37795;53.236;5.704;2022-11-14T03:27:55;39.63;;;30.77;;
51718;SDS011;37795;53.236;5.704;2022-11-14T03:30:21;38.93;;;32.00;;
51718;SDS011;37795;53.236;5.704;2022-11-14T03:32:46;39.40;;;31.15;;
51718;SDS011;37795;53.236;5.704;2022-11-14T03:35:12;41.47;;;33.07;;
51718;SDS011;37795;53.236;5.704;2022-11-14T03:37:38;42.67;;;32.93;;
51718;SDS011;37795;53.236;5.704;2022-11-14T03:40:04;44.90;;;34.42;;
51718;SDS011;37795;53.236;5.704;2022-11-14T03:42:33;42.92;;;34.75;;
51718;SDS011;37795;53.236;5.704;2022-11-14T03:44:59;46.92;;;38.00;;
51718;SDS011;37795;53.236;5.704;2022-11-14T03:47:25;46.90;;;36.70;;
51718;SDS011;37795;53.236;5.704;2022-11-14T03:49:51;49.28;;;37.78;;
51718;SDS011;37795;53.236;5.704;2022-11-14T03:52:16;48.65;;;37.97;;
51718;SDS011;37795;53.236;5.704;2022-11-14T03:54:42;44.90;;;35.00;;
51718;SDS011;37795;53.236;5.704;2022-11-14T03:57:08;47.80;;;35.83;;
51718;SDS011;37795;53.236;5.704;2022-11-14T03:59:33;46.17;;;37.22;;
51718;SDS011;37795;53.236;5.704;2022-11-14T04:01:59;51.43;;;37.87;;
51718;SDS011;37795;53.236;5.704;2022-11-14T04:04:25;48.75;;;36.97;;
51718;SDS011;37795;53.236;5.704;2022-11-14T04:06:50;47.28;;;37.03;;
51718;SDS011;37795;53.236;5.704;2022-11-14T04:09:16;45.83;;;36.53;;
51718;SDS011;37795;53.236;5.704;2022-11-14T04:11:42;47.38;;;37.67;;
51718;SDS011;37795;53.236;5.704;2022-11-14T04:14:08;49.55;;;38.13;;
51718;SDS011;37795;53.236;5.704;2022-11-14T04:16:34;51.47;;;41.55;;
51718;SDS011;37795;53.236;5.704;2022-11-14T04:18:59;52.45;;;39.88;;
51718;SDS011;37795;53.236;5.704;2022-11-14T04:21:25;50.73;;;38.17;;
51718;SDS011;37795;53.236;5.704;2022-11-14T04:23:51;53.00;;;42.78;;
51718;SDS011;37795;53.236;5.704;2022-11-14T04:26:17;53.27;;;42.60;;
51718;SDS011;37795;53.236;5.704;2022-11-14T04:28:42;49.17;;;40.30;;
51718;SDS011;37795;53.236;5.704;2022-11-14T04:31:08;56.67;;;43.17;;
51718;SDS011;37795;53.236;5.704;2022-11-14T04:33:34;54.07;;;42.33;;
51718;SDS011;37795;53.236;5.704;2022-11-14T04:35:59;53.77;;;42.20;;
51718;SDS011;37795;53.236;5.704;2022-11-14T04:38:25;53.97;;;42.78;;
51718;SDS011;37795;53.236;5.704;2022-11-14T04:40:51;52.90;;;41.97;;
51718;SDS011;37795;53.236;5.704;2022-11-14T04:43:17;52.65;;;40.35;;
51718;SDS011;37795;53.236;5.704;2022-11-14T04:45:44;52.92;;;41.33;;
51718;SDS011;37795;53.236;5.704;2022-11-14T04:48:10;57.63;;;44.97;;
51718;SDS011;37795;53.236;5.704;2022-11-14T04:50:36;58.00;;;44.03;;
51718;SDS011;37795;53.236;5.704;2022-11-14T04:53:02;60.40;;;46.35;;
51718;SDS011;37795;53.236;5.704;2022-11-14T04:55:28;55.43;;;44.07;;
51718;SDS011;37795;53.236;5.704;2022-11-14T04:57:54;60.38;;;45.67;;
51718;SDS011;37795;53.236;5.704;2022-11-14T05:00:21;55.58;;;44.33;;
51718;SDS011;37795;53.236;5.704;2022-11-14T05:02:48;60.00;;;45.58;;
51718;SDS011;37795;53.236;5.704;2022-11-14T05:05:14;59.35;;;45.58;;
51718;SDS011;37795;53.236;5.704;2022-11-14T05:07:40;56.85;;;45.35;;
51718;SDS011;37795;53.236;5.704;2022-11-14T05:10:06;59.75;;;45.33;;
51718;SDS011;37795;53.236;5.704;2022-11-14T05:12:32;58.83;;;46.30;;
51718;SDS011;37795;53.236;5.704;2022-11-14T05:14:58;55.75;;;44.38;;
51718;SDS011;37795;53.236;5.704;2022-11-14T05:17:24;59.27;;;45.20;;
51718;SDS011;37795;53.236;5.704;2022-11-14T05:19:50;67.75;;;50.60;;
51718;SDS011;37795;53.236;5.704;2022-11-14T05:22:16;65.40;;;47.97;;
51718;SDS011;37795;53.236;5.704;2022-11-14T05:24:42;62.83;;;50.22;;
51718;SDS011;37795;53.236;5.704;2022-11-14T05:27:07;60.83;;;49.27;;
51718;SDS011;37795;53.236;5.704;2022-11-14T05:29:33;59.83;;;47.38;;
51718;SDS011;37795;53.236;5.704;2022-11-14T05:31:59;58.47;;;47.13;;
51718;SDS011;37795;53.236;5.704;2022-11-14T05:34:25;54.15;;;44.25;;
51718;SDS011;37795;53.236;5.704;2022-11-14T05:36:51;58.03;;;43.97;;
51718;SDS011;37795;53.236;5.704;2022-11-14T05:39:16;60.30;;;46.63;;
51718;SDS011;37795;53.236;5.704;2022-11-14T05:41:42;57.72;;;44.63;;
51718;SDS011;37795;53.236;5.704;2022-11-14T05:44:08;58.40;;;44.85;;
51718;SDS011;37795;53.236;5.704;2022-11-14T05:46:34;57.75;;;43.60;;
51718;SDS011;37795;53.236;5.704;2022-11-14T05:48:59;60.37;;;44.10;;
51718;SDS011;37795;53.236;5.704;2022-11-14T05:51:25;61.65;;;44.15;;
51718;SDS011;37795;53.236;5.704;2022-11-14T05:53:51;55.27;;;43.80;;
51718;SDS011;37795;53.236;5.704;2022-11-14T05:56:17;53.03;;;42.47;;
51718;SDS011;37795;53.236;5.704;2022-11-14T05:58:42;59.85;;;45.75;;
51718;SDS011;37795;53.236;5.704;2022-11-14T06:01:09;51.87;;;42.13;;
51718;SDS011;37795;53.236;5.704;2022-11-14T06:03:42;55.70;;;45.33;;
51718;SDS011;37795;53.236;5.704;2022-11-14T06:06:11;58.65;;;45.22;;
51718;SDS011;37795;53.236;5.704;2022-11-14T06:08:38;59.35;;;45.72;;
51718;SDS011;37795;53.236;5.704;2022-11-14T06:11:06;55.30;;;44.40;;
51718;SDS011;37795;53.236;5.704;2022-11-14T06:13:33;56.55;;;43.78;;
51718;SDS011;37795;53.236;5.704;2022-11-14T06:16:03;56.83;;;43.70;;
51718;SDS011;37795;53.236;5.704;2022-11-14T06:18:31;58.13;;;43.73;;
51718;SDS011;37795;53.236;5.704;2022-11-14T06:21:01;59.42;;;44.17;;
51718;SDS011;37795;53.236;5.704;2022-11-14T06:23:37;61.55;;;45.78;;
51718;SDS011;37795;53.236;5.704;2022-11-14T06:26:09;57.25;;;44.88;;
51718;SDS011;37795;53.236;5.704;2022-11-14T06:28:50;55.72;;;44.78;;
51718;SDS011;37795;53.236;5.704;2022-11-14T06:31:18;57.78;;;44.38;;
51718;SDS011;37795;53.236;5.704;2022-11-14T06:33:44;57.65;;;44.80;;
51718;SDS011;37795;53.236;5.704;2022-11-14T06:36:10;56.58;;;43.38;;
51718;SDS011;37795;53.236;5.704;2022-11-14T06:38:37;51.10;;;41.83;;
51718;SDS011;37795;53.236;5.704;2022-11-14T06:41:05;53.22;;;42.67;;
51718;SDS011;37795;53.236;5.704;2022-11-14T06:43:32;53.88;;;42.53;;
51718;SDS011;37795;53.236;5.704;2022-11-14T06:45:59;51.93;;;42.13;;
51718;SDS011;37795;53.236;5.704;2022-11-14T06:48:25;51.80;;;42.13;;
51718;SDS011;37795;53.236;5.704;2022-11-14T06:50:52;54.95;;;43.38;;
51718;SDS011;37795;53.236;5.704;2022-11-14T06:59:20;60.53;;;45.90;;
51718;SDS011;37795;53.236;5.704;2022-11-14T07:01:45;62.67;;;46.33;;
51718;SDS011;37795;53.236;5.704;2022-11-14T07:04:11;58.08;;;44.45;;
51718;SDS011;37795;53.236;5.704;2022-11-14T07:06:37;59.53;;;43.47;;
51718;SDS011;37795;53.236;5.704;2022-11-14T07:09:02;59.73;;;46.93;;
51718;SDS011;37795;53.236;5.704;2022-11-14T07:11:28;59.45;;;45.30;;
51718;SDS011;37795;53.236;5.704;2022-11-14T07:13:59;57.67;;;44.55;;
51718;SDS011;37795;53.236;5.704;2022-11-14T07:16:27;58.37;;;45.43;;
51718;SDS011;37795;53.236;5.704;2022-11-14T07:18:54;56.95;;;44.15;;
51718;SDS011;37795;53.236;5.704;2022-11-14T07:21:23;58.95;;;47.40;;
51718;SDS011;37795;53.236;5.704;2022-11-14T07:23:50;57.05;;;45.38;;
51718;SDS011;37795;53.236;5.704;2022-11-14T07:26:15;53.28;;;43.20;;
51718;SDS011;37795;53.236;5.704;2022-11-14T07:28:42;53.20;;;41.27;;
51718;SDS011;37795;53.236;5.704;2022-11-14T07:31:09;53.40;;;41.97;;
51718;SDS011;37795;53.236;5.704;2022-11-14T07:33:37;56.67;;;43.00;;
51718;SDS011;37795;53.236;5.704;2022-11-14T07:36:03;56.25;;;42.90;;
51718;SDS011;37795;53.236;5.704;2022-11-14T07:38:29;58.45;;;42.33;;
51718;SDS011;37795;53.236;5.704;2022-11-14T07:40:57;52.35;;;43.03;;
51718;SDS011;37795;53.236;5.704;2022-11-14T07:43:23;56.30;;;44.78;;
51718;SDS011;37795;53.236;5.704;2022-11-14T07:45:49;54.53;;;44.20;;
51718;SDS011;37795;53.236;5.704;2022-11-14T07:48:15;54.90;;;42.95;;
51718;SDS011;37795;53.236;5.704;2022-11-14T07:50:42;52.05;;;41.92;;
51718;SDS011;37795;53.236;5.704;2022-11-14T07:53:08;52.27;;;42.43;;
51718;SDS011;37795;53.236;5.704;2022-11-14T07:55:34;51.65;;;41.47;;
51718;SDS011;37795;53.236;5.704;2022-11-14T07:58:00;52.42;;;42.25;;
51718;SDS011;37795;53.236;5.704;2022-11-14T08:00:26;54.15;;;42.65;;
51718;SDS011;37795;53.236;5.704;2022-11-14T08:02:52;52.85;;;41.95;;
51718;SDS011;37795;53.236;5.704;2022-11-14T08:05:18;54.47;;;42.13;;
51718;SDS011;37795;53.236;5.704;2022-11-14T08:07:44;52.05;;;42.75;;
51718;SDS011;37795;53.236;5.704;2022-11-14T08:10:10;56.67;;;44.10;;
51718;SDS011;37795;53.236;5.704;2022-11-14T08:12:38;53.15;;;41.42;;
51718;SDS011;37795;53.236;5.704;2022-11-14T08:15:05;52.50;;;42.25;;
51718;SDS011;37795;53.236;5.704;2022-11-14T08:17:31;53.35;;;42.08;;
51718;SDS011;37795;53.236;5.704;2022-11-14T08:19:57;55.20;;;43.97;;
51718;SDS011;37795;53.236;5.704;2022-11-14T08:22:23;52.97;;;42.87;;
51718;SDS011;37795;53.236;5.704;2022-11-14T08:24:48;54.13;;;42.25;;
51718;SDS011;37795;53.236;5.704;2022-11-14T08:27:14;57.35;;;43.63;;
51718;SDS011;37795;53.236;5.704;2022-11-14T08:29:40;51.73;;;42.23;;
51718;SDS011;37795;53.236;5.704;2022-11-14T08:32:05;53.67;;;42.35;;
51718;SDS011;37795;53.236;5.704;2022-11-14T08:34:31;53.10;;;42.50;;
51718;SDS011;37795;53.236;5.704;2022-11-14T08:36:57;53.17;;;41.63;;
51718;SDS011;37795;53.236;5.704;2022-11-14T08:39:23;47.47;;;38.50;;
51718;SDS011;37795;53.236;5.704;2022-11-14T08:41:48;50.53;;;41.10;;
51718;SDS011;37795;53.236;5.704;2022-11-14T08:44:14;52.93;;;42.60;;
51718;SDS011;37795;53.236;5.704;2022-11-14T08:46:40;51.17;;;39.45;;
51718;SDS011;37795;53.236;5.704;2022-11-14T08:49:05;48.67;;;38.53;;
51718;SDS011;37795;53.236;5.704;2022-11-14T08:51:31;49.17;;;40.07;;
51718;SDS011;37795;53.236;5.704;2022-11-14T08:53:57;50.85;;;40.05;;
51718;SDS011;37795;53.236;5.704;2022-11-14T08:56:22;53.30;;;41.08;;
51718;SDS011;37795;53.236;5.704;2022-11-14T08:58:48;50.87;;;39.03;;
51718;SDS011;37795;53.236;5.704;2022-11-14T09:01:14;47.53;;;37.08;;
51718;SDS011;37795;53.236;5.704;2022-11-14T09:03:39;51.20;;;39.80;;
51718;SDS011;37795;53.236;5.704;2022-11-14T09:06:05;49.03;;;38.03;;
51718;SDS011;37795;53.236;5.704;2022-11-14T09:08:31;42.60;;;34.97;;
51718;SDS011;37795;53.236;5.704;2022-11-14T09:11:00;44.90;;;36.13;;
51718;SDS011;37795;53.236;5.704;2022-11-14T09:13:27;46.60;;;36.88;;
51718;SDS011;37795;53.236;5.704;2022-11-14T09:15:53;45.27;;;37.30;;
51718;SDS011;37795;53.236;5.704;2022-11-14T09:18:19;44.33;;;35.22;;
51718;SDS011;37795;53.236;5.704;2022-11-14T09:20:44;45.03;;;35.20;;
51718;SDS011;37795;53.236;5.704;2022-11-14T09:23:10;42.43;;;35.33;;
51718;SDS011;37795;53.236;5.704;2022-11-14T09:25:36;44.35;;;36.20;;
51718;SDS011;37795;53.236;5.704;2022-11-14T09:28:03;45.30;;;36.60;;
51718;SDS011;37795;53.236;5.704;2022-11-14T09:30:30;46.38;;;36.30;;
51718;SDS011;37795;53.236;5.704;2022-11-14T09:33:00;38.80;;;33.20;;
51718;SDS011;37795;53.236;5.704;2022-11-14T09:35:27;40.92;;;32.50;;
51718;SDS011;37795;53.236;5.704;2022-11-14T09:38:00;38.53;;;32.05;;
51718;SDS011;37795;53.236;5.704;2022-11-14T09:40:27;40.38;;;34.00;;
51718;SDS011;37795;53.236;5.704;2022-11-14T09:45:46;42.17;;;33.15;;
51718;SDS011;37795;53.236;5.704;2022-11-14T09:48:19;49.57;;;34.23;;
51718;SDS011;37795;53.236;5.704;2022-11-14T09:51:08;47.75;;;38.25;;
51718;SDS011;37795;53.236;5.704;2022-11-14T09:56:22;46.83;;;36.95;;
51718;SDS011;37795;53.236;5.704;2022-11-14T09:58:49;50.83;;;39.25;;
51718;SDS011;37795;53.236;5.704;2022-11-14T10:01:18;45.00;;;35.67;;
51718;SDS011;37795;53.236;5.704;2022-11-14T10:10:25;49.80;;;37.97;;
51718;SDS011;37795;53.236;5.704;2022-11-14T10:21:43;46.72;;;37.90;;
51718;SDS011;37795;53.236;5.704;2022-11-14T10:27:27;48.65;;;37.95;;
51718;SDS011;37795;53.236;5.704;2022-11-14T10:30:04;46.35;;;38.47;;
51718;SDS011;37795;53.236;5.704;2022-11-14T10:35:14;51.33;;;38.35;;
51718;SDS011;37795;53.236;5.704;2022-11-14T10:37:52;47.55;;;36.85;;
51718;SDS011;37795;53.236;5.704;2022-11-14T10:40:33;46.80;;;34.78;;
51718;SDS011;37795;53.236;5.704;2022-11-14T10:43:20;49.88;;;38.63;;
51718;SDS011;37795;53.236;5.704;2022-11-14T10:46:11;49.50;;;37.67;;
51718;SDS011;37795;53.236;5.704;2022-11-14T10:48:39;46.97;;;36.80;;
51718;SDS011;37795;53.236;5.704;2022-11-14T10:59:22;50.20;;;34.95;;
51718;SDS011;37795;53.236;5.704;2022-11-14T11:04:25;46.70;;;35.37;;
51718;SDS011;37795;53.236;5.704;2022-11-14T11:09:34;43.72;;;34.90;;
51718;SDS011;37795;53.236;5.704;2022-11-14T11:12:24;45.13;;;34.53;;
51718;SDS011;37795;53.236;5.704;2022-11-14T11:15:22;42.45;;;33.90;;
51718;SDS011;37795;53.236;5.704;2022-11-14T11:17:58;45.72;;;35.17;;
51718;SDS011;37795;53.236;5.704;2022-11-14T11:25:38;46.30;;;33.67;;
51718;SDS011;37795;53.236;5.704;2022-11-14T11:30:53;48.75;;;35.92;;
51718;SDS011;37795;53.236;5.704;2022-11-14T11:35:47;44.50;;;33.53;;
51718;SDS011;37795;53.236;5.704;2022-11-14T11:38:18;42.50;;;32.55;;
51718;SDS011;37795;53.236;5.704;2022-11-14T11:40:45;42.63;;;33.88;;
51718;SDS011;37795;53.236;5.704;2022-11-14T11:45:48;39.80;;;32.80;;
51718;SDS011;37795;53.236;5.704;2022-11-14T11:48:21;37.63;;;31.08;;
51718;SDS011;37795;53.236;5.704;2022-11-14T11:50:47;41.78;;;33.05;;
51718;SDS011;37795;53.236;5.704;2022-11-14T11:55:52;45.43;;;34.50;;
51718;SDS011;37795;53.236;5.704;2022-11-14T11:58:49;44.25;;;35.42;;
51718;SDS011;37795;53.236;5.704;2022-11-14T12:01:31;43.75;;;33.53;;
51718;SDS011;37795;53.236;5.704;2022-11-14T12:03:57;41.47;;;31.77;;
51718;SDS011;37795;53.236;5.704;2022-11-14T12:06:24;45.22;;;34.50;;
51718;SDS011;37795;53.236;5.704;2022-11-14T12:09:28;46.35;;;34.95;;
51718;SDS011;37795;53.236;5.704;2022-11-14T12:11:48;43.88;;;34.30;;
51718;SDS011;37795;53.236;5.704;2022-11-14T12:22:34;39.65;;;32.95;;
51718;SDS011;37795;53.236;5.704;2022-11-14T12:30:30;39.78;;;31.75;;
51718;SDS011;37795;53.236;5.704;2022-11-14T12:33:11;43.35;;;32.55;;
51718;SDS011;37795;53.236;5.704;2022-11-14T12:35:55;41.43;;;33.67;;
51718;SDS011;37795;53.236;5.704;2022-11-14T12:38:26;42.17;;;32.88;;
51718;SDS011;37795;53.236;5.704;2022-11-14T12:40:58;45.33;;;33.80;;
51718;SDS011;37795;53.236;5.704;2022-11-14T12:45:54;39.40;;;30.98;;
51718;SDS011;37795;53.236;5.704;2022-11-14T12:48:22;40.85;;;32.15;;
51718;SDS011;37795;53.236;5.704;2022-11-14T12:50:58;37.97;;;31.08;;
51718;SDS011;37795;53.236;5.704;2022-11-14T13:04:21;43.53;;;32.88;;
51718;SDS011;37795;53.236;5.704;2022-11-14T13:12:23;41.03;;;32.07;;
51718;SDS011;37795;53.236;5.704;2022-11-14T13:21:01;40.58;;;33.22;;
51718;SDS011;37795;53.236;5.704;2022-11-14T13:28:51;38.60;;;32.23;;
51718;SDS011;37795;53.236;5.704;2022-11-14T13:31:22;39.45;;;32.20;;
51718;SDS011;37795;53.236;5.704;2022-11-14T13:33:59;39.78;;;31.35;;
51718;SDS011;37795;53.236;5.704;2022-11-14T13:42:10;36.78;;;31.45;;
51718;SDS011;37795;53.236;5.704;2022-11-14T13:50:34;42.63;;;31.25;;
51718;SDS011;37795;53.236;5.704;2022-11-14T13:53:01;39.30;;;30.77;;
51718;SDS011;37795;53.236;5.704;2022-11-14T14:10:24;36.10;;;29.95;;
51718;SDS011;37795;53.236;5.704;2022-11-14T14:15:48;34.55;;;29.40;;
51718;SDS011;37795;53.236;5.704;2022-11-14T14:21:10;35.70;;;30.10;;
51718;SDS011;37795;53.236;5.704;2022-11-14T14:23:48;36.92;;;29.10;;
51718;SDS011;37795;53.236;5.704;2022-11-14T14:31:39;35.63;;;29.00;;
51718;SDS011;37795;53.236;5.704;2022-11-14T14:36:55;35.60;;;29.47;;
51718;SDS011;37795;53.236;5.704;2022-11-14T14:39:25;36.38;;;30.42;;
51718;SDS011;37795;53.236;5.704;2022-11-14T14:41:56;35.15;;;29.90;;
51718;SDS011;37795;53.236;5.704;2022-11-14T14:44:24;33.90;;;28.07;;
51718;SDS011;37795;53.236;5.704;2022-11-14T14:46:56;36.60;;;29.77;;
51718;SDS011;37795;53.236;5.704;2022-11-14T14:49:34;34.30;;;28.92;;
51718;SDS011;37795;53.236;5.704;2022-11-14T14:52:17;35.45;;;29.10;;
51718;SDS011;37795;53.236;5.704;2022-11-14T14:54:57;36.67;;;29.98;;
51718;SDS011;37795;53.236;5.704;2022-11-14T14:57:26;35.42;;;28.98;;
51718;SDS011;37795;53.236;5.704;2022-11-14T15:00:01;36.55;;;30.85;;
51718;SDS011;37795;53.236;5.704;2022-11-14T15:02:31;35.83;;;29.17;;
51718;SDS011;37795;53.236;5.704;2022-11-14T15:04:58;37.60;;;29.43;;
51718;SDS011;37795;53.236;5.704;2022-11-14T15:07:25;35.55;;;30.20;;
51718;SDS011;37795;53.236;5.704;2022-11-14T15:10:00;37.50;;;30.37;;
51718;SDS011;37795;53.236;5.704;2022-11-14T15:12:28;36.70;;;29.85;;
51718;SDS011;37795;53.236;5.704;2022-11-14T15:14:55;34.60;;;28.45;;
51718;SDS011;37795;53.236;5.704;2022-11-14T15:17:21;37.85;;;30.60;;
51718;SDS011;37795;53.236;5.704;2022-11-14T15:19:48;35.22;;;30.00;;
51718;SDS011;37795;53.236;5.704;2022-11-14T15:24:42;34.55;;;29.25;;
51718;SDS011;37795;53.236;5.704;2022-11-14T15:27:12;36.60;;;30.20;;
51718;SDS011;37795;53.236;5.704;2022-11-14T15:29:52;36.10;;;29.35;;
51718;SDS011;37795;53.236;5.704;2022-11-14T15:32:23;35.35;;;28.02;;
51718;SDS011;37795;53.236;5.704;2022-11-14T15:38:04;33.88;;;29.98;;
51718;SDS011;37795;53.236;5.704;2022-11-14T15:40:37;36.38;;;28.58;;
51718;SDS011;37795;53.236;5.704;2022-11-14T15:46:02;34.47;;;30.55;;
51718;SDS011;37795;53.236;5.704;2022-11-14T15:48:28;37.50;;;29.83;;
51718;SDS011;37795;53.236;5.704;2022-11-14T15:50:55;35.42;;;28.27;;
51718;SDS011;37795;53.236;5.704;2022-11-14T15:53:21;37.43;;;29.67;;
51718;SDS011;37795;53.236;5.704;2022-11-14T15:55:49;37.17;;;31.17;;
51718;SDS011;37795;53.236;5.704;2022-11-14T15:58:15;35.97;;;29.17;;
51718;SDS011;37795;53.236;5.704;2022-11-14T16:00:47;34.95;;;27.60;;
51718;SDS011;37795;53.236;5.704;2022-11-14T16:03:16;34.40;;;28.47;;
51718;SDS011;37795;53.236;5.704;2022-11-14T16:05:44;32.97;;;27.75;;
51718;SDS011;37795;53.236;5.704;2022-11-14T16:08:10;33.97;;;27.67;;
51718;SDS011;37795;53.236;5.704;2022-11-14T16:10:36;34.50;;;27.67;;
51718;SDS011;37795;53.236;5.704;2022-11-14T16:13:02;32.90;;;26.20;;
51718;SDS011;37795;53.236;5.704;2022-11-14T16:15:28;29.25;;;24.85;;
51718;SDS011;37795;53.236;5.704;2022-11-14T16:17:54;30.85;;;24.92;;
51718;SDS011;37795;53.236;5.704;2022-11-14T16:20:27;31.23;;;24.47;;
51718;SDS011;37795;53.236;5.704;2022-11-14T16:22:54;30.02;;;24.60;;
51718;SDS011;37795;53.236;5.704;2022-11-14T16:25:22;27.30;;;23.45;;
51718;SDS011;37795;53.236;5.704;2022-11-14T16:27:49;31.73;;;22.58;;
51718;SDS011;37795;53.236;5.704;2022-11-14T16:30:15;28.02;;;24.52;;
51718;SDS011;37795;53.236;5.704;2022-11-14T16:32:43;25.05;;;20.40;;
51718;SDS011;37795;53.236;5.704;2022-11-14T16:35:14;27.70;;;23.48;;
51718;SDS011;37795;53.236;5.704;2022-11-14T16:37:47;25.30;;;21.90;;
51718;SDS011;37795;53.236;5.704;2022-11-14T16:40:22;24.88;;;21.55;;
51718;SDS011;37795;53.236;5.704;2022-11-14T16:42:55;27.17;;;23.30;;
51718;SDS011;37795;53.236;5.704;2022-11-14T16:45:22;24.80;;;22.20;;
51718;SDS011;37795;53.236;5.704;2022-11-14T16:47:49;26.20;;;22.92;;
51718;SDS011;37795;53.236;5.704;2022-11-14T16:50:16;23.13;;;20.47;;
51718;SDS011;37795;53.236;5.704;2022-11-14T16:52:42;26.23;;;21.50;;
51718;SDS011;37795;53.236;5.704;2022-11-14T16:55:09;31.95;;;26.35;;
51718;SDS011;37795;53.236;5.704;2022-11-14T16:57:35;27.95;;;23.48;;
51718;SDS011;37795;53.236;5.704;2022-11-14T17:00:05;26.92;;;24.08;;
51718;SDS011;37795;53.236;5.704;2022-11-14T17:02:33;23.27;;;20.87;;
51718;SDS011;37795;53.236;5.704;2022-11-14T17:04:59;25.67;;;22.92;;